Terminal Aerodrome Forecast
Issued by NWS

Home | Current Version | Previous Version | Text Only | Print | Product List | Glossary On
Versions: 1 2 3 4 5 6 7 8 9 10 11 12 13 14 15 16 17 18 19 20 21 22 23 24 25
000
FTUS43 KDVN 281100
TAFCID
TAF
KCID 281122Z 2812/2912 14011KT 2SM BR OVC003
     FM281400 14014G21KT 6SM BR OVC010
     FM281600 14015G23KT P6SM SCT015 BKN050
     FM290100 13013KT 6SM BR SCT020 BKN100
     FM290600 18009KT 4SM BR OVC012
     FM290900 32018G24KT 4SM BR OVC010=

USA.gov is the U.S. government's official web portal to all federal, state and local government web resources and services.